Terminal Aerodrome Forecast
Issued by NWS

Home | Current Version | Previous Version | Text Only | Print | Product List | Glossary On
Versions: 1 2 3 4 5 6 7 8 9 10 11 12 13 14 15
000
FTUS43 KPAH 252329
TAFOWB
TAF
KOWB 252329Z 2600/2624 23004KT P6SM BKN250
     FM260900 00000KT 3SM BR FEW020
     FM261400 16004KT P6SM SCT025 BKN250=

USA.gov is the U.S. government's official web portal to all federal, state and local government web resources and services.